Time;durP1;ratioP1;P1;durP2;ratioP2;P2;SDS_P1;SDS_P2;PMS_P1;PMS_P2;Temp;Humidity;BMP_temperature;BMP_pressure;BME280_temperature;BME280_humidity;BME280_pressure;Samples;Min_cycle;Max_cycle;Signal;HPM_P1;HPM_P2
2022/06/12 00:01:59;;;;;;;3.93;3.63;;;21.10;99.90;;;21.82;59.36;101138.28;4969001;28;20741;-66
2022/06/12 00:04:26;;;;;;;4.07;3.77;;;21.00;99.90;;;21.83;58.41;101131.94;4971187;28;20635;-67
2022/06/12 00:06:53;;;;;;;4.10;3.70;;;21.00;99.90;;;21.83;57.99;101136.47;4970494;28;20639;-66
2022/06/12 00:09:21;;;;;;;6.60;3.67;;;21.00;99.90;;;21.81;57.96;101143.72;4969154;28;21075;-67
2022/06/12 00:11:48;;;;;;;5.20;3.30;;;21.00;99.90;;;21.80;57.92;101144.72;4970729;28;20667;-66
2022/06/12 00:14:15;;;;;;;3.83;3.53;;;21.00;99.90;;;21.75;58.42;101149.72;4954584;28;20623;-66
2022/06/12 00:16:44;;;;;;;4.70;3.40;;;20.90;99.90;;;21.73;58.16;101146.41;4971560;28;20726;-65
2022/06/12 00:19:13;;;;;;;3.80;3.50;;;20.90;99.90;;;21.70;58.30;101144.91;4972092;28;20722;-67
2022/06/12 00:21:40;;;;;;;3.73;3.43;;;20.90;99.90;;;21.72;58.95;101153.56;4947383;28;20643;-66
2022/06/12 00:24:14;;;;;;;4.03;3.73;;;20.90;99.90;;;21.70;58.90;101149.41;4986262;28;20621;-66
2022/06/12 00:26:45;;;;;;;4.00;3.70;;;20.90;99.90;;;21.67;59.23;101152.38;4983691;28;20630;-66
2022/06/12 00:29:20;;;;;;;3.57;3.37;;;20.90;99.90;;;21.59;59.66;101154.06;4970831;28;20997;-66
2022/06/12 00:31:53;;;;;;;5.47;4.00;;;20.80;99.90;;;21.50;59.70;101155.09;4985293;28;20673;-66
2022/06/12 00:34:24;;;;;;;5.10;4.10;;;20.70;99.90;;;21.45;60.08;101152.09;4985010;28;20635;-64
2022/06/12 00:36:50;;;;;;;4.10;3.70;;;20.70;99.90;;;21.43;60.09;101158.56;4953023;28;20655;-65
2022/06/12 00:39:17;;;;;;;3.90;3.60;;;20.60;99.90;;;21.43;59.79;101155.91;4970405;28;20619;-66
2022/06/12 00:41:48;;;;;;;4.13;3.60;;;20.70;99.90;;;21.42;59.36;101159.56;4971142;28;20739;-66
2022/06/12 00:44:22;;;;;;;3.20;3.00;;;20.60;99.90;;;21.42;59.52;101151.63;4971746;28;20614;-66
2022/06/12 00:47:00;;;;;;;3.87;3.57;;;20.60;99.90;;;21.39;59.29;101157.25;4978627;28;20643;-66
2022/06/12 00:49:40;;;;;;;4.20;3.23;;;20.60;99.90;;;21.42;59.49;101167.53;4982785;28;20687;-66
2022/06/12 00:52:24;;;;;;;3.00;2.80;;;20.60;99.90;;;21.33;60.05;101157.91;4953476;28;20661;-66
2022/06/12 00:55:03;;;;;;;3.60;3.30;;;20.60;99.90;;;21.38;59.52;101160.91;4978526;28;20639;-66
2022/06/12 00:57:30;;;;;;;3.03;2.87;;;20.60;99.90;;;21.40;59.33;101165.03;4972476;28;20664;-68
2022/06/12 01:00:04;;;;;;;3.10;2.80;;;20.60;99.90;;;21.41;59.22;101163.22;4957099;28;20625;-66
2022/06/12 01:02:37;;;;;;;3.20;3.00;;;20.60;99.90;;;21.39;59.35;101166.03;4974340;28;20647;-66
2022/06/12 01:07:58;;;;;;;3.80;3.50;;;20.70;99.90;;;21.41;59.41;101165.88;4974974;28;20737;-66
2022/06/12 01:10:28;;;;;;;3.37;3.17;;;20.70;99.90;;;21.43;59.24;101164.72;4988766;28;20631;-66
2022/06/12 01:13:11;;;;;;;5.93;3.90;;;20.70;99.90;;;21.45;59.31;101165.38;4957851;28;20636;-66
2022/06/12 01:15:46;;;;;;;4.10;3.20;;;20.70;99.90;;;21.43;59.22;101162.06;4974317;28;20619;-67
2022/06/12 01:18:17;;;;;;;3.13;2.90;;;20.70;99.90;;;21.47;59.28;101159.88;4955852;28;20650;-66
2022/06/12 01:21:03;;;;;;;3.53;3.17;;;20.70;99.90;;;21.43;59.29;101156.75;4956312;28;20702;-65
2022/06/12 01:23:48;;;;;;;3.50;3.30;;;20.70;99.90;;;21.40;59.51;101156.25;4974283;28;20673;-68
2022/06/12 01:26:59;;;;;;;3.50;3.07;;;20.60;99.90;;;21.43;59.74;101161.22;4972766;28;20639;-66
2022/06/12 01:29:32;;;;;;;3.70;3.40;;;20.60;99.90;;;21.37;59.99;101157.41;4943359;28;20625;-66
2022/06/12 01:32:13;;;;;;;3.43;3.13;;;20.60;99.90;;;21.36;60.02;101157.59;4965199;28;21062;-66
2022/06/12 01:35:08;;;;;;;3.20;3.00;;;20.60;99.90;;;21.34;60.17;101157.75;4955895;28;21204;-66
2022/06/12 01:38:10;;;;;;;4.10;3.17;;;20.60;99.90;;;21.34;60.23;101156.91;4940060;28;20761;-66
2022/06/12 01:40:59;;;;;;;3.20;3.00;;;20.60;99.90;;;21.19;60.50;101148.78;4973088;28;20614;-66
2022/06/12 01:44:03;;;;;;;2.90;2.70;;;20.50;99.90;;;21.18;61.00;101149.78;4956363;28;20635;-66
2022/06/12 01:47:20;;;;;;;2.87;2.67;;;20.40;99.90;;;21.18;60.89;101146.31;4955686;28;20630;-66
2022/06/12 01:50:31;;;;;;;3.60;2.83;;;20.40;99.90;;;21.17;60.86;101142.81;4911974;28;20730;-66
2022/06/12 01:53:29;;;;;;;4.43;3.07;;;20.40;99.90;;;21.09;61.20;101148.13;4954941;28;20663;-66
2022/06/12 01:56:23;;;;;;;3.10;2.80;;;20.30;99.90;;;21.06;61.40;101145.00;4959775;28;20664;-66
2022/06/12 01:59:02;;;;;;;3.30;3.10;;;20.30;99.90;;;20.97;61.69;101151.25;4967886;28;20644;-66
2022/06/12 02:01:47;;;;;;;3.43;3.17;;;20.20;99.90;;;20.97;61.91;101149.44;4979196;28;20639;-66
2022/06/12 02:04:34;;;;;;;3.13;2.93;;;20.20;99.90;;;20.92;61.68;101149.09;4973044;28;20607;-65
2022/06/12 02:07:25;;;;;;;3.27;2.97;;;20.10;99.90;;;20.90;62.51;101159.03;4976180;28;20727;-66
2022/06/12 02:10:09;;;;;;;4.07;3.37;;;20.10;99.90;;;20.80;62.25;101156.53;4966254;28;20626;-66
2022/06/12 02:15:49;;;;;;;3.77;3.47;;;20.00;99.90;;;20.78;62.56;101160.34;4958917;28;20621;-68
2022/06/12 02:18:33;;;;;;;6.43;2.80;;;20.00;99.90;;;20.83;62.44;101160.66;4954537;28;20647;-66
2022/06/12 02:21:11;;;;;;;2.97;2.77;;;20.10;99.90;;;20.82;62.44;101159.88;4956521;28;21176;-66
2022/06/12 02:23:48;;;;;;;3.13;2.93;;;20.10;99.90;;;20.82;62.42;101151.06;4956012;28;20666;-66
2022/06/12 02:26:21;;;;;;;3.40;3.10;;;20.10;99.90;;;20.78;62.83;101147.91;4955513;28;20629;-66
2022/06/12 02:28:57;;;;;;;3.43;3.03;;;20.00;99.90;;;20.69;63.61;101151.53;4970039;28;21018;-66
2022/06/12 02:31:30;;;;;;;6.77;3.40;;;19.90;99.90;;;20.66;63.53;101151.88;4955348;28;20769;-68
2022/06/12 02:34:09;;;;;;;3.63;3.33;;;19.90;99.90;;;20.64;63.38;101153.84;4955061;28;20626;-66
2022/06/12 02:36:48;;;;;;;6.90;3.80;;;19.90;99.90;;;20.67;63.36;101155.34;4935284;28;20632;-66
2022/06/12 02:39:23;;;;;;;3.03;2.90;;;19.90;99.90;;;20.71;63.11;101146.91;4951615;29;20608;-66
2022/06/12 02:41:59;;;;;;;3.00;2.80;;;19.90;99.90;;;20.73;63.49;101152.88;4955565;28;21073;-66
2022/06/12 02:44:42;;;;;;;3.63;3.33;;;20.00;99.90;;;20.63;64.03;101152.19;4987107;28;20721;-67
2022/06/12 02:47:24;;;;;;;3.53;3.30;;;19.90;99.90;;;20.64;63.72;101147.72;4986982;28;21210;-66
2022/06/12 02:49:53;;;;;;;4.73;3.33;;;19.90;99.90;;;20.59;63.80;101153.50;4970918;28;21006;-66
2022/06/12 02:52:41;;;;;;;3.40;3.10;;;19.90;99.90;;;20.65;63.89;101142.25;4980807;28;20771;-68
2022/06/12 02:55:36;;;;;;;3.90;3.60;;;19.90;99.90;;;20.73;63.73;101149.38;4953804;28;20730;-66
2022/06/12 02:58:19;;;;;;;3.57;3.27;;;20.00;99.90;;;20.74;63.50;101153.72;4971563;28;20722;-66
2022/06/12 03:01:02;;;;;;;3.20;3.00;;;20.00;99.90;;;20.78;63.28;101149.75;4972132;28;20623;-66
2022/06/12 03:03:32;;;;;;;2.87;2.77;;;20.00;99.90;;;20.80;63.21;101153.91;4971152;28;20635;-65
2022/06/12 03:06:00;;;;;;;3.30;3.10;;;20.00;99.90;;;20.74;63.45;101154.53;4971747;28;20638;-66
2022/06/12 03:08:47;;;;;;;3.60;3.23;;;20.00;99.90;;;20.74;63.86;101156.38;4954469;28;20653;-66
2022/06/12 03:11:29;;;;;;;3.70;3.50;;;20.00;99.90;;;20.73;63.89;101157.34;4970602;28;20641;-66
2022/06/12 03:13:57;;;;;;;4.17;3.50;;;19.90;99.90;;;20.68;64.16;101154.34;4971810;28;20723;-66
2022/06/12 03:16:34;;;;;;;4.13;3.73;;;19.90;99.90;;;20.70;63.88;101155.00;4972218;28;21211;-66
2022/06/12 03:19:20;;;;;;;3.67;3.37;;;19.90;99.90;;;20.65;64.49;101154.69;4971124;28;20830;-66
2022/06/12 03:22:11;;;;;;;4.30;3.90;;;19.90;99.90;;;20.64;64.41;101153.84;4968938;28;20638;-66
2022/06/12 03:25:20;;;;;;;4.30;3.73;;;19.90;99.90;;;20.66;64.35;101156.31;4971453;28;20661;-66
2022/06/12 03:28:04;;;;;;;4.30;3.80;;;19.90;99.90;;;20.64;64.35;101150.34;4986126;28;21112;-66
2022/06/12 03:30:43;;;;;;;3.70;3.40;;;19.90;99.90;;;20.66;64.41;101154.50;4985944;28;21235;-66
2022/06/12 03:33:38;;;;;;;3.43;3.23;;;19.90;99.90;;;20.58;64.73;101156.31;4954970;28;20651;-67
2022/06/12 03:36:19;;;;;;;6.47;3.10;;;19.80;99.90;;;20.54;64.97;101165.59;4954128;28;20758;-67
2022/06/12 03:38:52;;;;;;;3.73;3.50;;;19.80;99.90;;;20.49;65.22;101170.53;4970798;28;20669;-66
2022/06/12 03:41:33;;;;;;;3.50;3.23;;;19.80;99.90;;;20.50;65.53;101177.50;4971299;28;20662;-67
2022/06/12 03:44:12;;;;;;;3.83;3.53;;;19.70;99.90;;;20.52;65.44;101176.34;4970343;28;21231;-66
2022/06/12 03:47:03;;;;;;;4.87;3.80;;;19.80;99.90;;;20.54;65.30;101178.84;4954449;28;20697;-66
2022/06/12 03:49:32;;;;;;;3.93;3.63;;;19.80;99.90;;;20.59;65.06;101187.16;4968001;28;20666;-66
2022/06/12 03:52:13;;;;;;;5.20;4.10;;;19.80;99.90;;;20.55;65.28;101181.31;4985601;28;21113;-66
2022/06/12 03:54:58;;;;;;;9.80;3.70;;;19.80;99.90;;;20.52;65.63;101186.97;4971425;28;20618;-67
2022/06/12 03:57:53;;;;;;;6.83;3.70;;;19.80;99.90;;;20.57;65.34;101181.19;4970407;28;20774;-66
2022/06/12 04:00:34;;;;;;;4.53;3.57;;;19.80;99.90;;;20.70;65.08;101186.81;4968252;28;20635;-67
2022/06/12 04:03:24;;;;;;;4.27;3.20;;;20.00;99.90;;;20.79;64.54;101180.56;4967542;28;20730;-66
2022/06/12 04:05:56;;;;;;;3.37;3.07;;;20.10;99.90;;;20.92;64.44;101188.03;4935924;29;20632;-66
2022/06/12 04:08:45;;;;;;;3.87;3.50;;;20.20;99.90;;;21.04;63.70;101184.94;4963393;28;20797;-67
2022/06/12 04:11:15;;;;;;;5.27;3.67;;;20.30;99.90;;;21.20;63.51;101194.75;4997319;28;20720;-66
2022/06/12 04:13:44;;;;;;;3.67;3.37;;;20.60;99.90;;;21.40;62.90;101182.81;4999693;28;20673;-68
2022/06/12 04:16:36;;;;;;;3.80;3.50;;;20.80;99.90;;;21.67;61.79;101184.25;4961348;28;20634;-66
2022/06/12 04:19:07;;;;;;;4.50;4.20;;;21.10;99.90;;;21.91;60.69;101186.91;4985171;28;20639;-66
2022/06/12 04:21:50;;;;;;;3.80;3.50;;;21.40;99.90;;;22.14;60.25;101196.66;4954576;28;20611;-66
2022/06/12 04:24:42;;;;;;;4.40;4.00;;;21.60;99.90;;;22.33;59.45;101179.44;4961910;28;20632;-66
2022/06/12 04:27:20;;;;;;;5.23;4.27;;;21.80;99.90;;;22.55;58.72;101176.03;4966907;28;20679;-64
2022/06/12 04:29:56;;;;;;;4.40;3.97;;;22.00;99.90;;;22.76;58.13;101173.59;4964367;28;20665;-66
2022/06/12 04:32:24;;;;;;;4.00;3.70;;;22.20;99.90;;;22.85;57.65;101179.69;4974943;28;20670;-67
2022/06/12 04:34:53;;;;;;;5.00;4.00;;;22.30;99.90;;;22.97;57.13;101181.78;4989184;28;20623;-67
2022/06/12 04:37:27;;;;;;;4.80;4.00;;;22.40;99.90;;;23.08;56.61;101178.69;4974213;28;20646;-66
2022/06/12 04:40:00;;;;;;;4.00;3.70;;;22.70;99.90;;;23.27;56.48;101181.88;4982186;28;20642;-67
2022/06/12 04:42:31;;;;;;;4.10;3.70;;;22.70;99.90;;;23.41;55.86;101181.09;4974747;28;20694;-68
2022/06/12 04:45:00;;;;;;;4.03;3.70;;;22.90;99.90;;;23.47;55.67;101186.53;4973760;28;20670;-66
2022/06/12 04:47:30;;;;;;;4.00;3.67;;;22.90;99.90;;;23.67;55.49;101185.03;4974773;28;20641;-67
2022/06/12 04:49:57;;;;;;;3.23;3.00;;;23.10;99.90;;;23.89;54.94;101191.31;4956748;28;20741;-67
2022/06/12 04:52:27;;;;;;;4.00;3.70;;;23.30;99.80;;;24.04;54.17;101192.19;4974556;28;20669;-66
2022/06/12 04:54:54;;;;;;;3.97;3.50;;;23.50;99.30;;;24.35;53.55;101187.47;4966503;28;20620;-66
2022/06/12 04:57:25;;;;;;;3.57;3.37;;;23.80;98.90;;;24.58;52.50;101195.31;4974165;28;20754;-66
2022/06/12 04:59:53;;;;;;;3.60;3.30;;;24.10;98.30;;;24.55;52.80;101196.50;4973216;28;20674;-66
2022/06/12 05:02:20;;;;;;;3.90;3.10;;;24.10;98.10;;;24.49;52.97;101201.78;4985869;28;20643;-67
2022/06/12 05:04:47;;;;;;;3.90;3.07;;;23.90;98.20;;;24.32;53.56;101198.47;4986862;28;20723;-68
2022/06/12 05:07:14;;;;;;;4.43;3.80;;;23.70;98.30;;;24.18;53.47;101207.34;4974391;28;20642;-66
2022/06/12 05:09:43;;;;;;;7.20;3.70;;;23.50;98.60;;;24.06;54.13;101207.97;4989686;28;20630;-68
2022/06/12 05:12:12;;;;;;;3.90;3.53;;;23.40;98.90;;;24.01;54.31;101197.84;4974169;28;20754;-67
2022/06/12 05:14:41;;;;;;;3.53;3.23;;;23.30;99.10;;;24.00;55.00;101200.69;4988031;28;20674;-66
2022/06/12 05:17:19;;;;;;;3.43;3.20;;;23.30;99.30;;;24.10;54.40;101195.94;4988353;28;21069;-67
2022/06/12 05:19:47;;;;;;;3.97;3.60;;;23.50;99.20;;;24.32;54.09;101187.00;4973591;28;20670;-67
2022/06/12 05:22:15;;;;;;;5.23;3.90;;;23.80;98.90;;;24.63;53.69;101192.91;4979032;28;20746;-66
2022/06/12 05:24:45;;;;;;;3.93;3.40;;;24.10;98.40;;;25.02;52.81;101196.03;4974799;28;21204;-66
2022/06/12 05:27:19;;;;;;;6.93;3.30;;;24.50;97.90;;;25.45;51.65;101196.88;4993124;28;20741;-68
2022/06/12 05:29:47;;;;;;;3.37;3.07;;;25.00;97.20;;;25.85;50.80;101190.78;4998054;28;20684;-66
2022/06/12 05:32:18;;;;;;;2.77;2.60;;;25.40;96.50;;;26.14;49.97;101198.63;4983799;28;21096;-66
2022/06/12 05:34:45;;;;;;;3.57;3.27;;;25.70;95.60;;;26.28;49.24;101201.38;4974189;28;21216;-67
2022/06/12 05:37:13;;;;;;;4.07;3.30;;;25.80;95.20;;;26.38;49.16;101185.75;4975191;28;20726;-66
2022/06/12 05:39:40;;;;;;;3.10;2.90;;;25.90;95.10;;;26.53;48.78;101189.13;4972575;28;20645;-67
2022/06/12 05:42:08;;;;;;;3.20;2.90;;;26.00;94.70;;;26.66;48.74;101192.63;4956667;28;20621;-66
2022/06/12 05:44:37;;;;;;;3.17;2.97;;;26.20;94.40;;;26.65;48.44;101188.34;4972866;28;20637;-68
2022/06/12 05:47:05;;;;;;;3.50;3.20;;;26.10;94.30;;;26.75;48.39;101187.97;4955587;28;20662;-67
2022/06/12 05:49:32;;;;;;;4.90;3.57;;;26.20;94.20;;;27.01;47.34;101188.03;4974156;28;20623;-66
2022/06/12 05:51:59;;;;;;;3.63;3.37;;;26.50;93.50;;;27.13;46.81;101188.25;4956882;28;20986;-66
2022/06/12 05:54:26;;;;;;;3.73;3.00;;;26.60;92.80;;;27.42;46.43;101199.44;4961554;28;21481;-66
2022/06/12 05:56:54;;;;;;;3.83;3.13;;;26.80;92.50;;;27.83;45.74;101188.47;4983691;28;20665;-67
2022/06/12 05:59:22;;;;;;;2.60;2.50;;;27.30;91.90;;;28.34;44.83;101186.69;4975397;28;20642;-66
2022/06/12 06:01:49;;;;;;;3.20;3.00;;;27.90;91.10;;;28.65;43.68;101187.81;4976986;28;20645;-65
2022/06/12 06:04:16;;;;;;;3.30;3.10;;;28.30;89.80;;;28.51;43.23;101197.78;4973393;28;20622;-66
2022/06/12 06:06:53;;;;;;;2.87;2.67;;;28.00;89.10;;;28.47;43.67;101191.19;4972126;28;20638;-67
2022/06/12 06:09:21;;;;;;;3.70;3.10;;;27.80;89.00;;;28.82;42.88;101200.53;4972786;28;21174;-66
2022/06/12 06:11:48;;;;;;;4.97;3.30;;;28.20;88.10;;;29.31;42.04;101196.28;4972953;28;20642;-66
2022/06/12 06:14:15;;;;;;;3.80;3.37;;;28.80;86.80;;;29.21;41.55;101190.56;4972297;28;20642;-67
2022/06/12 06:16:43;;;;;;;3.03;2.80;;;28.80;84.90;;;29.26;41.61;101196.94;4973121;28;20619;-66
2022/06/12 06:19:12;;;;;;;3.37;3.00;;;28.70;84.90;;;29.34;41.85;101195.84;4972735;28;20635;-66
2022/06/12 06:21:40;;;;;;;4.77;2.70;;;28.80;84.30;;;29.29;41.95;101195.69;4973492;28;20613;-67
2022/06/12 06:24:09;;;;;;;3.73;3.37;;;28.70;83.80;;;28.69;42.84;101195.22;4971795;28;20647;-67
2022/06/12 06:26:36;;;;;;;4.77;3.17;;;28.10;84.50;;;28.40;44.23;101198.44;4987458;28;20643;-66
2022/06/12 06:29:04;;;;;;;5.23;3.03;;;27.70;86.40;;;28.70;43.01;101201.41;4971724;28;20642;-66
2022/06/12 06:31:31;;;;;;;3.43;3.13;;;28.00;84.70;;;28.61;43.02;101198.16;4969997;28;20730;-66
2022/06/12 06:33:58;;;;;;;2.67;2.47;;;28.00;84.40;;;28.93;42.60;101202.53;4986777;28;20658;-66
2022/06/12 06:36:25;;;;;;;4.00;3.10;;;28.20;84.40;;;29.39;41.43;101204.88;4972681;28;20991;-66
2022/06/12 06:38:54;;;;;;;3.00;2.80;;;28.70;83.20;;;30.49;39.69;101202.16;4972484;28;20638;-66
2022/06/12 06:41:22;;;;;;;5.40;2.63;;;29.80;80.90;;;32.03;36.32;101205.53;4972119;28;20726;-67
2022/06/12 06:46:35;;;;;;;2.87;2.67;;;32.40;72.80;;;33.15;34.57;101198.59;4957901;28;20619;-65
2022/06/12 06:49:03;;;;;;;2.93;2.60;;;32.70;70.40;;;33.52;33.87;101205.16;4970993;28;20678;-65
2022/06/12 06:51:31;;;;;;;2.97;2.77;;;33.00;69.00;;;34.95;32.23;101217.56;4973303;28;20629;-65
2022/06/12 06:53:58;;;;;;;4.60;3.00;;;34.30;66.80;;;36.62;30.04;101203.22;4970647;28;20762;-65
2022/06/12 06:56:26;;;;;;;2.97;2.77;;;36.00;62.90;;;37.63;28.35;101207.63;4971262;28;20689;-65
2022/06/12 06:58:53;;;;;;;2.70;2.50;;;37.20;58.60;;;37.89;27.76;101209.25;4971203;28;20632;-65
2022/06/12 07:01:20;;;;;;;3.30;3.00;;;37.30;56.10;;;38.71;26.29;101208.66;4986143;28;21159;-66
2022/06/12 07:03:47;;;;;;;3.30;3.10;;;38.10;54.40;;;39.77;25.12;101205.03;4970950;28;21174;-65
2022/06/12 07:06:16;;;;;;;3.80;3.40;;;39.10;52.70;;;39.35;25.55;101202.97;4970932;28;20670;-65
2022/06/12 07:08:50;;;;;;;2.43;2.33;;;38.90;51.30;;;39.86;24.68;101210.66;4968795;28;20645;-65
2022/06/12 07:11:18;;;;;;;2.90;2.70;;;39.10;50.60;;;40.35;24.19;101208.44;4971283;28;20642;-65
2022/06/12 07:13:45;;;;;;;2.67;2.47;;;39.60;49.90;;;41.24;23.09;101207.41;4972941;28;20750;-66
2022/06/12 07:16:13;;;;;;;2.40;2.30;;;40.50;48.80;;;42.19;22.25;101212.22;4986394;28;21194;-65
2022/06/12 07:18:40;;;;;;;2.57;2.37;;;41.40;47.50;;;42.81;21.27;101214.09;4972373;28;20688;-66
2022/06/12 07:21:07;;;;;;;2.73;2.63;;;42.00;46.60;;;43.34;21.02;101214.16;4952981;28;20635;-65
2022/06/12 07:23:34;;;;;;;3.33;3.13;;;42.50;45.30;;;43.48;20.31;101209.41;4977899;28;20622;-65
2022/06/12 07:26:08;;;;;;;3.00;2.90;;;42.80;44.30;;;44.63;19.52;101208.00;4960510;28;20670;-66
2022/06/12 07:28:37;;;;;;;3.27;2.93;;;43.70;43.80;;;44.49;19.71;101203.78;4969534;28;20658;-65
2022/06/12 07:31:07;;;;;;;2.73;2.57;;;43.70;43.00;;;44.87;19.52;101201.22;4971175;28;20734;-68
2022/06/12 07:33:34;;;;;;;2.77;2.67;;;44.10;42.70;;;44.03;20.06;101192.50;4972997;28;20677;-65
2022/06/12 07:36:01;;;;;;;4.00;2.80;;;43.40;42.60;;;44.32;20.00;101193.53;4971937;28;20729;-66
2022/06/12 07:38:29;;;;;;;5.20;3.30;;;43.50;42.80;;;45.31;18.63;101195.31;4961401;28;20647;-66
2022/06/12 07:41:01;;;;;;;3.60;3.37;;;44.40;42.10;;;45.74;18.70;101190.47;4969930;28;20724;-65
2022/06/12 07:43:34;;;;;;;3.50;3.20;;;44.90;41.40;;;46.27;18.28;101187.06;4971307;28;20990;-66
2022/06/12 07:46:09;;;;;;;3.33;3.10;;;45.40;40.80;;;47.05;17.16;101190.03;4971453;28;21045;-66
2022/06/12 07:48:37;;;;;;;3.30;3.03;;;46.30;40.00;;;47.29;16.80;101190.88;4971311;28;20709;-66
2022/06/12 07:51:15;;;;;;;2.50;2.30;;;46.40;39.60;;;47.91;16.57;101189.78;4971457;28;20980;-67
2022/06/12 07:53:42;;;;;;;2.80;2.63;;;47.10;39.20;;;48.45;16.33;101187.53;4985903;28;20662;-65
2022/06/12 07:56:11;;;;;;;2.87;2.77;;;47.70;38.50;;;48.49;15.87;101186.47;4987518;28;21170;-64
2022/06/12 07:58:40;;;;;;;3.37;3.10;;;47.80;38.20;;;48.67;15.96;101192.50;4970673;28;20635;-65
2022/06/12 08:01:10;;;;;;;3.10;2.80;;;47.90;38.10;;;47.43;16.32;101190.56;4970959;28;20818;-67
2022/06/12 08:03:38;;;;;;;3.27;3.10;;;47.00;38.10;;;46.35;17.56;101175.16;4970854;28;21154;-65
2022/06/12 08:06:09;;;;;;;3.40;3.10;;;45.80;38.60;;;43.77;19.92;101174.00;4971975;28;21059;-66
2022/06/12 08:08:37;;;;;;;2.93;2.80;;;43.40;39.80;;;43.04;20.59;101179.25;4970222;28;20659;-69
2022/06/12 08:11:04;;;;;;;3.20;3.10;;;42.30;41.00;;;43.41;20.53;101167.03;4970318;28;20631;-69
2022/06/12 08:13:31;;;;;;;3.80;3.17;;;42.50;41.50;;;44.34;19.77;101168.47;4969738;28;20670;-67
2022/06/12 08:15:59;;;;;;;3.50;3.30;;;43.40;41.10;;;45.65;18.06;101173.16;4971450;28;20722;-67
2022/06/12 08:18:26;;;;;;;3.97;3.60;;;44.70;40.10;;;46.39;17.62;101178.88;4970281;28;20659;-67
2022/06/12 08:21:01;;;;;;;5.53;3.30;;;45.60;39.40;;;46.53;18.03;101182.19;4971398;28;21066;-65
2022/06/12 08:23:57;;;;;;;3.33;3.20;;;45.80;39.00;;;45.32;18.47;101172.13;4971504;28;20630;-67
2022/06/12 08:26:30;;;;;;;3.60;3.40;;;44.90;38.90;;;44.65;19.41;101169.13;4987154;28;20669;-68
2022/06/12 08:29:02;;;;;;;3.10;3.00;;;43.90;39.90;;;45.37;18.58;101167.25;4969384;28;20742;-64
2022/06/12 08:31:38;;;;;;;3.50;3.30;;;44.50;39.70;;;45.91;18.55;101167.47;4973218;28;20647;-67
2022/06/12 08:34:22;;;;;;;4.30;4.00;;;45.20;39.10;;;44.86;18.94;101170.09;4978015;28;20749;-64
2022/06/12 08:36:56;;;;;;;3.43;3.20;;;44.40;39.70;;;45.86;18.51;101170.41;4969798;28;20635;-66
2022/06/12 08:39:24;;;;;;;2.90;2.70;;;44.90;39.20;;;47.35;16.96;101177.63;4970441;28;20646;-65
2022/06/12 08:42:11;;;;;;;3.43;3.20;;;46.40;38.30;;;48.22;15.82;101170.59;4970791;28;20641;-66
2022/06/12 08:45:12;;;;;;;2.90;2.80;;;47.50;37.30;;;49.14;15.33;101165.75;4971621;28;21206;-69
2022/06/12 08:48:00;;;;;;;2.87;2.77;;;48.40;37.10;;;49.58;15.08;101167.28;4971820;28;20650;-65
2022/06/12 08:51:02;;;;;;;3.00;2.97;;;48.90;36.70;;;50.34;14.79;101168.63;4951081;29;21136;-67
2022/06/12 08:53:50;;;;;;;3.13;2.90;;;49.70;36.10;;;50.04;14.04;101159.22;4949005;28;20666;-66
2022/06/12 08:56:43;;;;;;;2.53;2.53;;;49.30;35.90;;;50.79;13.50;101174.31;4977847;28;21230;-66
2022/06/12 08:59:18;;;;;;;2.93;2.83;;;50.10;35.50;;;50.93;14.13;101165.47;4951041;29;20729;-70
2022/06/12 09:01:45;;;;;;;3.00;2.90;;;50.10;35.40;;;51.57;13.77;101167.38;4970448;28;20651;-67
2022/06/12 09:04:17;;;;;;;2.90;2.80;;;50.80;34.90;;;;;;4971188;28;20980;-67
2022/06/12 09:06:49;;;;;;;3.00;2.90;;;51.40;34.70;;;;;;4971466;28;20612;-66
2022/06/12 09:09:27;;;;;;;2.90;2.80;;;51.40;34.70;;;;;;4969572;28;20635;-67
2022/06/12 09:12:20;;;;;;;3.23;3.10;;;51.60;34.40;;;;;;4970806;28;20625;-66
2022/06/12 09:14:47;;;;;;;2.67;2.57;;;51.30;34.30;;;;;;4970648;28;20662;-66
2022/06/12 09:17:46;;;;;;;2.87;2.77;;;51.40;34.30;;;;;;4971075;28;20636;-66
2022/06/12 09:20:13;;;;;;;2.80;2.70;;;52.60;33.60;;;;;;4972557;28;21001;-67
2022/06/12 09:23:25;;;;;;;2.70;2.60;;;53.20;33.10;;;;;;4973684;28;21060;-66
2022/06/12 09:26:30;;;;;;;2.50;2.50;;;52.70;33.10;;;;;;4960383;28;21200;-67
2022/06/12 09:29:35;;;;;;;2.37;2.37;;;52.50;33.00;;;;;;4975832;28;21263;-66
2022/06/12 09:32:29;;;;;;;3.00;2.90;;;52.30;33.00;;;;;;4974588;28;20632;-67
2022/06/12 09:35:08;;;;;;;2.60;2.60;;;52.60;32.90;;;;;;4973920;28;20765;-67
2022/06/12 09:41:14;;;;;;;2.80;2.80;;;52.50;33.00;;;;;;4970200;28;20700;-68
2022/06/12 09:43:55;;;;;;;2.83;2.73;;;53.20;33.10;;;;;;4973343;28;20622;-68
2022/06/12 09:46:31;;;;;;;3.03;2.90;;;53.10;33.00;;;;;;4954912;29;20619;-66
2022/06/12 09:49:32;;;;;;;3.20;3.00;;;52.00;33.10;;;;;;4953407;28;20710;-69
2022/06/12 09:52:21;;;;;;;3.20;3.00;;;51.40;33.60;;;;;;4973327;28;20717;-68
2022/06/12 09:55:06;;;;;;;2.87;2.77;;;51.40;33.70;;;;;;4972029;28;20685;-69
2022/06/12 09:57:54;;;;;;;2.60;2.50;;;51.40;33.60;;;;;;4972779;28;21064;-67
2022/06/12 10:00:42;;;;;;;3.40;3.10;;;51.50;33.60;;;;;;4972268;28;20650;-67
2022/06/12 10:03:18;;;;;;;2.90;2.80;;;50.60;33.90;;;;;;4976752;28;20683;-67
2022/06/12 10:06:45;;;;;;;2.60;2.50;;;50.20;33.80;;;;;;4984720;28;20628;-67
2022/06/12 10:09:22;;;;;;;3.07;2.97;;;49.50;34.40;;;;;;4968666;28;20749;-67
2022/06/12 10:12:05;;;;;;;2.70;2.60;;;49.00;34.90;;;;;;4971342;28;21003;-68
2022/06/12 10:14:40;;;;;;;2.90;2.70;;;47.40;35.40;;;;;;4983397;28;20666;-67
2022/06/12 10:17:17;;;;;;;2.70;2.60;;;46.20;36.20;;;;;;4970241;28;21244;-66
2022/06/12 10:20:14;;;;;;;2.33;2.23;;;44.40;37.30;;;;;;4967025;28;20636;-67
2022/06/12 10:22:45;;;;;;;2.10;2.00;;;43.00;38.00;;;;;;4972998;28;21229;-67
2022/06/12 10:25:27;;;;;;;2.40;2.20;;;41.80;39.00;;;;;;4983516;28;20651;-70
2022/06/12 10:28:01;;;;;;;2.33;2.13;;;40.20;39.80;;;;;;4966479;28;20743;-66
2022/06/12 10:30:42;;;;;;;2.80;2.60;;;39.00;41.00;;;38.33;nan;101045.00;4983348;28;20713;-66
2022/06/12 10:33:28;;;;;;;2.40;2.30;;;37.80;42.30;;;37.65;nan;101042.09;4988836;28;20647;-69
2022/06/12 10:36:01;;;;;;;2.27;2.20;;;36.70;43.00;;;37.07;nan;101045.53;4971570;28;20634;-66
2022/06/12 10:38:36;;;;;;;3.47;2.70;;;36.00;44.10;;;36.57;nan;101033.56;5014274;23;20699;-66
2022/06/12 10:41:07;;;;;;;2.70;2.50;;;35.50;45.00;;;35.90;nan;101040.22;4973995;28;20634;-64
2022/06/12 10:43:44;;;;;;;2.90;2.57;;;34.90;45.40;;;35.14;nan;101025.47;4986955;28;20637;-65
2022/06/12 10:46:19;;;;;;;3.77;3.57;;;34.10;46.20;;;34.66;nan;101024.56;4991609;28;20696;-66
2022/06/12 10:49:18;;;;;;;5.07;4.63;;;33.60;46.90;;;34.44;nan;101026.50;4978492;28;20705;-64
2022/06/12 10:51:47;;;;;;;9.57;7.80;;;33.40;47.40;;;34.35;nan;101033.50;4992854;28;20630;-66
2022/06/12 10:54:28;;;;;;;3.03;2.83;;;33.30;47.60;;;34.23;nan;101024.69;4992650;28;20675;-65
2022/06/12 10:57:51;;;;;;;2.50;2.40;;;33.20;48.00;;;34.20;nan;101026.03;4992755;28;20626;-65
2022/06/12 11:00:24;;;;;;;2.60;2.40;;;33.20;48.30;;;34.38;nan;101016.72;4991616;28;20630;-65
2022/06/12 11:02:55;;;;;;;1.80;1.80;;;33.30;47.90;;;34.28;nan;101006.63;4987450;28;20661;-67
2022/06/12 11:05:46;;;;;;;2.70;2.60;;;33.30;47.90;;;33.77;nan;101009.03;4990321;28;20634;-66
2022/06/12 11:09:03;;;;;;;2.80;2.60;;;32.90;48.30;;;33.33;nan;101017.09;4992699;28;20654;-67
2022/06/12 11:12:10;;;;;;;2.40;2.30;;;32.40;48.90;;;33.13;nan;101000.63;4992459;28;21092;-65
2022/06/12 11:15:24;;;;;;;3.17;2.87;;;32.10;49.30;;;33.23;nan;101000.75;4991341;28;21248;-65
2022/06/12 11:18:24;;;;;;;2.80;2.60;;;32.20;49.60;;;33.20;nan;101006.66;4980040;28;21023;-65
2022/06/12 11:21:12;;;;;;;2.80;2.60;;;32.20;49.10;;;33.27;nan;101006.47;4991489;28;20618;-65
2022/06/12 11:23:51;;;;;;;2.90;2.70;;;32.30;49.40;;;33.09;nan;100991.38;4984210;28;20986;-66